sensor_id;sensor_type;location;lat;lon;timestamp;P1;durP1;ratioP1;P2;durP2;ratioP2
45318;SDS011;31057;48.498;32.260;2023-04-22T00:01:08;15.40;;;6.70;;
45318;SDS011;31057;48.498;32.260;2023-04-22T00:03:10;15.70;;;7.18;;
45318;SDS011;31057;48.498;32.260;2023-04-22T00:05:12;22.98;;;7.38;;
45318;SDS011;31057;48.498;32.260;2023-04-22T00:07:19;20.83;;;7.45;;
45318;SDS011;31057;48.498;32.260;2023-04-22T00:09:21;15.30;;;7.18;;
45318;SDS011;31057;48.498;32.260;2023-04-22T00:11:24;11.70;;;6.78;;
45318;SDS011;31057;48.498;32.260;2023-04-22T00:13:26;14.95;;;6.95;;
45318;SDS011;31057;48.498;32.260;2023-04-22T00:15:28;17.25;;;6.97;;
45318;SDS011;31057;48.498;32.260;2023-04-22T00:17:31;11.63;;;6.70;;
45318;SDS011;31057;48.498;32.260;2023-04-22T00:19:33;17.38;;;6.20;;
45318;SDS011;31057;48.498;32.260;2023-04-22T00:21:35;22.40;;;6.68;;
45318;SDS011;31057;48.498;32.260;2023-04-22T00:23:37;14.15;;;6.57;;
45318;SDS011;31057;48.498;32.260;2023-04-22T00:25:39;14.45;;;6.47;;
45318;SDS011;31057;48.498;32.260;2023-04-22T00:27:41;19.60;;;6.47;;
45318;SDS011;31057;48.498;32.260;2023-04-22T00:31:45;17.70;;;7.10;;
45318;SDS011;31057;48.498;32.260;2023-04-22T00:33:47;14.57;;;6.57;;
45318;SDS011;31057;48.498;32.260;2023-04-22T00:35:49;14.50;;;6.43;;
45318;SDS011;31057;48.498;32.260;2023-04-22T00:37:51;12.32;;;6.50;;
45318;SDS011;31057;48.498;32.260;2023-04-22T00:39:53;13.80;;;6.25;;
45318;SDS011;31057;48.498;32.260;2023-04-22T00:43:57;15.93;;;7.10;;
45318;SDS011;31057;48.498;32.260;2023-04-22T00:46:00;13.20;;;6.30;;
45318;SDS011;31057;48.498;32.260;2023-04-22T00:48:02;17.73;;;6.80;;
45318;SDS011;31057;48.498;32.260;2023-04-22T00:50:05;13.05;;;6.40;;
45318;SDS011;31057;48.498;32.260;2023-04-22T00:52:07;12.07;;;5.88;;
45318;SDS011;31057;48.498;32.260;2023-04-22T00:54:09;13.15;;;6.38;;
45318;SDS011;31057;48.498;32.260;2023-04-22T00:56:11;13.68;;;6.25;;
45318;SDS011;31057;48.498;32.260;2023-04-22T00:58:13;12.93;;;6.15;;
45318;SDS011;31057;48.498;32.260;2023-04-22T01:00:17;13.20;;;6.32;;
45318;SDS011;31057;48.498;32.260;2023-04-22T01:02:20;16.20;;;6.95;;
45318;SDS011;31057;48.498;32.260;2023-04-22T01:06:25;9.10;;;5.85;;
45318;SDS011;31057;48.498;32.260;2023-04-22T01:08:29;12.80;;;6.90;;
45318;SDS011;31057;48.498;32.260;2023-04-22T01:10:32;13.38;;;6.82;;
45318;SDS011;31057;48.498;32.260;2023-04-22T01:12:34;15.73;;;7.35;;
45318;SDS011;31057;48.498;32.260;2023-04-22T01:14:36;10.55;;;6.10;;
45318;SDS011;31057;48.498;32.260;2023-04-22T01:16:39;13.32;;;7.25;;
45318;SDS011;31057;48.498;32.260;2023-04-22T01:18:43;20.70;;;6.80;;
45318;SDS011;31057;48.498;32.260;2023-04-22T01:20:45;14.85;;;7.35;;
45318;SDS011;31057;48.498;32.260;2023-04-22T01:24:51;14.68;;;8.23;;
45318;SDS011;31057;48.498;32.260;2023-04-22T01:26:53;18.45;;;7.60;;
45318;SDS011;31057;48.498;32.260;2023-04-22T01:28:55;21.77;;;8.23;;
45318;SDS011;31057;48.498;32.260;2023-04-22T01:30:59;16.45;;;7.40;;
45318;SDS011;31057;48.498;32.260;2023-04-22T01:33:01;16.75;;;7.55;;
45318;SDS011;31057;48.498;32.260;2023-04-22T01:35:04;12.52;;;6.88;;
45318;SDS011;31057;48.498;32.260;2023-04-22T01:37:06;18.05;;;7.88;;
45318;SDS011;31057;48.498;32.260;2023-04-22T01:39:08;19.20;;;8.07;;
45318;SDS011;31057;48.498;32.260;2023-04-22T01:41:10;19.88;;;7.28;;
45318;SDS011;31057;48.498;32.260;2023-04-22T01:43:13;14.93;;;6.93;;
45318;SDS011;31057;48.498;32.260;2023-04-22T01:45:15;11.73;;;6.53;;
45318;SDS011;31057;48.498;32.260;2023-04-22T01:49:19;17.70;;;6.78;;
45318;SDS011;31057;48.498;32.260;2023-04-22T01:51:22;16.23;;;7.15;;
45318;SDS011;31057;48.498;32.260;2023-04-22T01:53:24;13.27;;;6.35;;
45318;SDS011;31057;48.498;32.260;2023-04-22T01:55:25;19.10;;;8.25;;
45318;SDS011;31057;48.498;32.260;2023-04-22T01:57:28;13.35;;;6.72;;
45318;SDS011;31057;48.498;32.260;2023-04-22T01:59:29;12.52;;;6.90;;
45318;SDS011;31057;48.498;32.260;2023-04-22T02:01:31;17.42;;;6.43;;
45318;SDS011;31057;48.498;32.260;2023-04-22T02:05:36;13.95;;;6.75;;
45318;SDS011;31057;48.498;32.260;2023-04-22T02:09:40;13.70;;;6.78;;
45318;SDS011;31057;48.498;32.260;2023-04-22T02:11:42;12.60;;;7.10;;
45318;SDS011;31057;48.498;32.260;2023-04-22T02:13:44;23.33;;;7.82;;
45318;SDS011;31057;48.498;32.260;2023-04-22T02:15:46;18.20;;;6.97;;
45318;SDS011;31057;48.498;32.260;2023-04-22T02:17:48;14.95;;;6.78;;
45318;SDS011;31057;48.498;32.260;2023-04-22T02:19:50;15.93;;;7.10;;
45318;SDS011;31057;48.498;32.260;2023-04-22T02:23:54;12.27;;;6.10;;
45318;SDS011;31057;48.498;32.260;2023-04-22T02:25:56;22.00;;;7.30;;
45318;SDS011;31057;48.498;32.260;2023-04-22T02:27:58;22.92;;;9.68;;
45318;SDS011;31057;48.498;32.260;2023-04-22T02:30:00;29.95;;;15.27;;
45318;SDS011;31057;48.498;32.260;2023-04-22T02:34:04;25.00;;;11.10;;
45318;SDS011;31057;48.498;32.260;2023-04-22T02:36:06;24.90;;;10.50;;
45318;SDS011;31057;48.498;32.260;2023-04-22T02:40:10;19.35;;;9.50;;
45318;SDS011;31057;48.498;32.260;2023-04-22T02:44:14;16.60;;;8.50;;
45318;SDS011;31057;48.498;32.260;2023-04-22T02:46:16;22.63;;;9.15;;
45318;SDS011;31057;48.498;32.260;2023-04-22T02:48:18;16.40;;;7.20;;
45318;SDS011;31057;48.498;32.260;2023-04-22T02:50:20;17.55;;;8.27;;
45318;SDS011;31057;48.498;32.260;2023-04-22T02:52:22;19.60;;;9.23;;
45318;SDS011;31057;48.498;32.260;2023-04-22T02:54:24;17.85;;;7.80;;
45318;SDS011;31057;48.498;32.260;2023-04-22T02:56:26;17.92;;;8.43;;
45318;SDS011;31057;48.498;32.260;2023-04-22T02:58:28;18.13;;;7.93;;
45318;SDS011;31057;48.498;32.260;2023-04-22T03:00:30;14.18;;;7.20;;
45318;SDS011;31057;48.498;32.260;2023-04-22T03:04:34;17.08;;;9.15;;
45318;SDS011;31057;48.498;32.260;2023-04-22T03:06:37;20.30;;;7.22;;
45318;SDS011;31057;48.498;32.260;2023-04-22T03:08:39;27.38;;;10.48;;
45318;SDS011;31057;48.498;32.260;2023-04-22T03:10:41;17.88;;;8.35;;
45318;SDS011;31057;48.498;32.260;2023-04-22T03:12:44;19.10;;;8.25;;
45318;SDS011;31057;48.498;32.260;2023-04-22T03:14:46;19.88;;;7.47;;
45318;SDS011;31057;48.498;32.260;2023-04-22T03:16:48;25.63;;;8.68;;
45318;SDS011;31057;48.498;32.260;2023-04-22T03:18:50;23.08;;;9.10;;
45318;SDS011;31057;48.498;32.260;2023-04-22T03:22:54;24.00;;;8.25;;
45318;SDS011;31057;48.498;32.260;2023-04-22T03:24:56;18.05;;;8.63;;
45318;SDS011;31057;48.498;32.260;2023-04-22T03:26:58;16.80;;;7.72;;
45318;SDS011;31057;48.498;32.260;2023-04-22T03:28:59;22.75;;;8.27;;
45318;SDS011;31057;48.498;32.260;2023-04-22T03:31:02;17.42;;;8.27;;
45318;SDS011;31057;48.498;32.260;2023-04-22T03:33:04;16.45;;;8.20;;
45318;SDS011;31057;48.498;32.260;2023-04-22T03:35:06;16.48;;;7.70;;
45318;SDS011;31057;48.498;32.260;2023-04-22T03:37:08;29.33;;;8.18;;
45318;SDS011;31057;48.498;32.260;2023-04-22T03:41:12;25.83;;;9.93;;
45318;SDS011;31057;48.498;32.260;2023-04-22T03:43:14;18.92;;;6.75;;
45318;SDS011;31057;48.498;32.260;2023-04-22T03:45:16;22.23;;;7.28;;
45318;SDS011;31057;48.498;32.260;2023-04-22T03:47:17;17.08;;;7.63;;
45318;SDS011;31057;48.498;32.260;2023-04-22T03:49:20;15.80;;;7.50;;
45318;SDS011;31057;48.498;32.260;2023-04-22T03:51:22;19.63;;;8.73;;
45318;SDS011;31057;48.498;32.260;2023-04-22T03:53:24;21.13;;;7.68;;
45318;SDS011;31057;48.498;32.260;2023-04-22T03:55:26;22.27;;;8.00;;
45318;SDS011;31057;48.498;32.260;2023-04-22T03:57:28;19.13;;;7.55;;
45318;SDS011;31057;48.498;32.260;2023-04-22T03:59:29;14.93;;;6.95;;
45318;SDS011;31057;48.498;32.260;2023-04-22T04:01:31;16.20;;;6.95;;
45318;SDS011;31057;48.498;32.260;2023-04-22T04:03:33;21.38;;;7.15;;
45318;SDS011;31057;48.498;32.260;2023-04-22T04:05:36;22.55;;;7.30;;
45318;SDS011;31057;48.498;32.260;2023-04-22T04:09:40;23.58;;;7.50;;
45318;SDS011;31057;48.498;32.260;2023-04-22T04:11:42;18.65;;;7.90;;
45318;SDS011;31057;48.498;32.260;2023-04-22T04:13:44;16.63;;;6.72;;
45318;SDS011;31057;48.498;32.260;2023-04-22T04:15:46;28.08;;;8.82;;
45318;SDS011;31057;48.498;32.260;2023-04-22T04:17:48;17.20;;;7.18;;
45318;SDS011;31057;48.498;32.260;2023-04-22T04:19:51;21.58;;;7.90;;
45318;SDS011;31057;48.498;32.260;2023-04-22T04:21:53;18.05;;;6.75;;
45318;SDS011;31057;48.498;32.260;2023-04-22T04:23:55;15.57;;;7.18;;
45318;SDS011;31057;48.498;32.260;2023-04-22T04:25:58;17.80;;;7.10;;
45318;SDS011;31057;48.498;32.260;2023-04-22T04:28:04;22.10;;;6.68;;
45318;SDS011;31057;48.498;32.260;2023-04-22T04:30:09;15.30;;;6.60;;
45318;SDS011;31057;48.498;32.260;2023-04-22T04:32:11;17.77;;;6.40;;
45318;SDS011;31057;48.498;32.260;2023-04-22T04:34:14;21.52;;;6.60;;
45318;SDS011;31057;48.498;32.260;2023-04-22T04:36:16;20.38;;;7.43;;
45318;SDS011;31057;48.498;32.260;2023-04-22T04:38:18;23.65;;;7.10;;
45318;SDS011;31057;48.498;32.260;2023-04-22T04:42:22;22.40;;;8.65;;
45318;SDS011;31057;48.498;32.260;2023-04-22T04:44:24;22.25;;;8.18;;
45318;SDS011;31057;48.498;32.260;2023-04-22T04:46:27;19.40;;;7.22;;
45318;SDS011;31057;48.498;32.260;2023-04-22T04:48:30;17.35;;;6.65;;
45318;SDS011;31057;48.498;32.260;2023-04-22T04:50:36;23.35;;;8.55;;
45318;SDS011;31057;48.498;32.260;2023-04-22T04:52:38;14.60;;;6.00;;
45318;SDS011;31057;48.498;32.260;2023-04-22T04:54:40;15.02;;;6.50;;
45318;SDS011;31057;48.498;32.260;2023-04-22T04:56:42;21.40;;;7.45;;
45318;SDS011;31057;48.498;32.260;2023-04-22T05:00:46;18.33;;;7.65;;
45318;SDS011;31057;48.498;32.260;2023-04-22T05:02:47;21.45;;;7.57;;
45318;SDS011;31057;48.498;32.260;2023-04-22T05:04:50;15.88;;;6.75;;
45318;SDS011;31057;48.498;32.260;2023-04-22T05:08:54;34.10;;;8.15;;
45318;SDS011;31057;48.498;32.260;2023-04-22T05:12:57;19.00;;;7.20;;
45318;SDS011;31057;48.498;32.260;2023-04-22T05:15:03;17.65;;;6.57;;
45318;SDS011;31057;48.498;32.260;2023-04-22T05:17:05;21.90;;;7.32;;
45318;SDS011;31057;48.498;32.260;2023-04-22T05:19:08;18.90;;;7.10;;
45318;SDS011;31057;48.498;32.260;2023-04-22T05:21:10;16.23;;;7.15;;
45318;SDS011;31057;48.498;32.260;2023-04-22T05:23:12;18.00;;;6.20;;
45318;SDS011;31057;48.498;32.260;2023-04-22T05:25:14;16.45;;;7.55;;
45318;SDS011;31057;48.498;32.260;2023-04-22T05:27:16;17.90;;;7.05;;
45318;SDS011;31057;48.498;32.260;2023-04-22T05:29:19;16.65;;;7.40;;
45318;SDS011;31057;48.498;32.260;2023-04-22T05:31:21;19.05;;;6.60;;
45318;SDS011;31057;48.498;32.260;2023-04-22T05:33:23;18.67;;;7.32;;
45318;SDS011;31057;48.498;32.260;2023-04-22T05:35:26;16.17;;;6.68;;
45318;SDS011;31057;48.498;32.260;2023-04-22T05:37:28;17.70;;;6.07;;
45318;SDS011;31057;48.498;32.260;2023-04-22T05:41:32;22.38;;;6.60;;
45318;SDS011;31057;48.498;32.260;2023-04-22T05:43:34;18.95;;;7.25;;
45318;SDS011;31057;48.498;32.260;2023-04-22T05:45:36;12.85;;;6.18;;
45318;SDS011;31057;48.498;32.260;2023-04-22T05:47:38;20.25;;;7.78;;
45318;SDS011;31057;48.498;32.260;2023-04-22T05:49:40;28.02;;;8.48;;
45318;SDS011;31057;48.498;32.260;2023-04-22T05:51:43;19.83;;;6.50;;
45318;SDS011;31057;48.498;32.260;2023-04-22T05:53:44;27.48;;;6.95;;
45318;SDS011;31057;48.498;32.260;2023-04-22T05:55:46;23.40;;;7.22;;
45318;SDS011;31057;48.498;32.260;2023-04-22T05:57:48;14.70;;;7.00;;
45318;SDS011;31057;48.498;32.260;2023-04-22T05:59:51;20.60;;;7.10;;
45318;SDS011;31057;48.498;32.260;2023-04-22T06:01:53;19.95;;;6.53;;
45318;SDS011;31057;48.498;32.260;2023-04-22T06:03:55;13.68;;;6.47;;
45318;SDS011;31057;48.498;32.260;2023-04-22T06:05:58;14.23;;;6.10;;
45318;SDS011;31057;48.498;32.260;2023-04-22T06:08:01;19.58;;;6.45;;
45318;SDS011;31057;48.498;32.260;2023-04-22T06:10:03;12.85;;;6.60;;
45318;SDS011;31057;48.498;32.260;2023-04-22T06:12:06;14.40;;;5.82;;
45318;SDS011;31057;48.498;32.260;2023-04-22T06:16:10;16.92;;;5.97;;
45318;SDS011;31057;48.498;32.260;2023-04-22T06:18:12;22.70;;;6.15;;
45318;SDS011;31057;48.498;32.260;2023-04-22T06:20:14;11.63;;;5.90;;
45318;SDS011;31057;48.498;32.260;2023-04-22T06:22:16;20.27;;;4.97;;
45318;SDS011;31057;48.498;32.260;2023-04-22T06:24:18;15.48;;;4.65;;
45318;SDS011;31057;48.498;32.260;2023-04-22T06:28:21;20.07;;;5.13;;
45318;SDS011;31057;48.498;32.260;2023-04-22T06:30:24;9.45;;;4.25;;
45318;SDS011;31057;48.498;32.260;2023-04-22T06:32:26;9.93;;;4.13;;
45318;SDS011;31057;48.498;32.260;2023-04-22T06:34:28;10.30;;;3.47;;
45318;SDS011;31057;48.498;32.260;2023-04-22T06:38:33;12.10;;;4.63;;
45318;SDS011;31057;48.498;32.260;2023-04-22T06:40:35;9.75;;;3.38;;
45318;SDS011;31057;48.498;32.260;2023-04-22T06:42:37;17.60;;;5.22;;
45318;SDS011;31057;48.498;32.260;2023-04-22T06:44:39;13.45;;;4.53;;
45318;SDS011;31057;48.498;32.260;2023-04-22T06:48:44;14.93;;;4.35;;
45318;SDS011;31057;48.498;32.260;2023-04-22T06:50:46;15.05;;;5.43;;
45318;SDS011;31057;48.498;32.260;2023-04-22T06:52:48;19.35;;;5.05;;
45318;SDS011;31057;48.498;32.260;2023-04-22T06:54:50;19.45;;;4.95;;
45318;SDS011;31057;48.498;32.260;2023-04-22T06:56:52;15.10;;;4.32;;
45318;SDS011;31057;48.498;32.260;2023-04-22T06:58:55;9.30;;;3.95;;
45318;SDS011;31057;48.498;32.260;2023-04-22T07:00:57;12.45;;;4.03;;
45318;SDS011;31057;48.498;32.260;2023-04-22T07:03:00;7.15;;;2.47;;
45318;SDS011;31057;48.498;32.260;2023-04-22T07:05:02;12.63;;;4.47;;
45318;SDS011;31057;48.498;32.260;2023-04-22T07:09:06;15.82;;;4.15;;
45318;SDS011;31057;48.498;32.260;2023-04-22T07:13:14;9.95;;;4.80;;
45318;SDS011;31057;48.498;32.260;2023-04-22T07:15:16;11.30;;;3.25;;
45318;SDS011;31057;48.498;32.260;2023-04-22T07:17:18;11.77;;;3.80;;
45318;SDS011;31057;48.498;32.260;2023-04-22T07:19:22;8.25;;;4.90;;
45318;SDS011;31057;48.498;32.260;2023-04-22T07:21:25;15.38;;;3.45;;
45318;SDS011;31057;48.498;32.260;2023-04-22T07:23:27;15.18;;;4.55;;
45318;SDS011;31057;48.498;32.260;2023-04-22T07:25:29;14.45;;;4.53;;
45318;SDS011;31057;48.498;32.260;2023-04-22T07:27:31;10.10;;;3.70;;
45318;SDS011;31057;48.498;32.260;2023-04-22T07:29:36;15.63;;;4.65;;
45318;SDS011;31057;48.498;32.260;2023-04-22T07:31:39;11.23;;;3.90;;
45318;SDS011;31057;48.498;32.260;2023-04-22T07:35:43;12.55;;;3.70;;
45318;SDS011;31057;48.498;32.260;2023-04-22T07:37:45;4.55;;;3.15;;
45318;SDS011;31057;48.498;32.260;2023-04-22T07:39:46;7.82;;;2.75;;
45318;SDS011;31057;48.498;32.260;2023-04-22T07:45:53;9.60;;;3.70;;
45318;SDS011;31057;48.498;32.260;2023-04-22T07:47:55;12.15;;;3.80;;
45318;SDS011;31057;48.498;32.260;2023-04-22T07:49:57;16.63;;;3.42;;
45318;SDS011;31057;48.498;32.260;2023-04-22T08:04:05;6.22;;;3.67;;
45318;SDS011;31057;48.498;32.260;2023-04-22T08:06:08;13.45;;;4.35;;
45318;SDS011;31057;48.498;32.260;2023-04-22T08:08:10;12.20;;;3.88;;
45318;SDS011;31057;48.498;32.260;2023-04-22T08:10:12;12.38;;;4.47;;
45318;SDS011;31057;48.498;32.260;2023-04-22T08:12:14;14.55;;;3.92;;
45318;SDS011;31057;48.498;32.260;2023-04-22T08:14:16;11.85;;;3.88;;
45318;SDS011;31057;48.498;32.260;2023-04-22T08:16:18;13.73;;;4.53;;
45318;SDS011;31057;48.498;32.260;2023-04-22T08:20:22;18.42;;;4.43;;
45318;SDS011;31057;48.498;32.260;2023-04-22T08:22:25;10.77;;;3.88;;
45318;SDS011;31057;48.498;32.260;2023-04-22T08:24:27;14.40;;;4.63;;
45318;SDS011;31057;48.498;32.260;2023-04-22T08:26:29;14.88;;;4.38;;
45318;SDS011;31057;48.498;32.260;2023-04-22T08:28:31;12.38;;;4.38;;
45318;SDS011;31057;48.498;32.260;2023-04-22T08:30:33;12.15;;;3.97;;
45318;SDS011;31057;48.498;32.260;2023-04-22T08:32:35;17.27;;;3.60;;
45318;SDS011;31057;48.498;32.260;2023-04-22T08:34:38;12.07;;;4.25;;
45318;SDS011;31057;48.498;32.260;2023-04-22T08:36:43;11.25;;;3.83;;
45318;SDS011;31057;48.498;32.260;2023-04-22T08:38:46;14.35;;;4.20;;
45318;SDS011;31057;48.498;32.260;2023-04-22T08:40:50;12.32;;;4.25;;
45318;SDS011;31057;48.498;32.260;2023-04-22T08:42:55;13.15;;;4.03;;
45318;SDS011;31057;48.498;32.260;2023-04-22T08:44:57;19.85;;;4.90;;
45318;SDS011;31057;48.498;32.260;2023-04-22T08:47:00;12.45;;;3.58;;
45318;SDS011;31057;48.498;32.260;2023-04-22T08:49:03;8.50;;;4.35;;
45318;SDS011;31057;48.498;32.260;2023-04-22T08:51:07;13.75;;;4.20;;
45318;SDS011;31057;48.498;32.260;2023-04-22T08:53:09;9.32;;;3.83;;
45318;SDS011;31057;48.498;32.260;2023-04-22T08:55:11;13.18;;;3.20;;
45318;SDS011;31057;48.498;32.260;2023-04-22T08:57:13;6.07;;;3.35;;
45318;SDS011;31057;48.498;32.260;2023-04-22T08:59:16;11.50;;;3.53;;
45318;SDS011;31057;48.498;32.260;2023-04-22T09:01:20;11.80;;;4.05;;
45318;SDS011;31057;48.498;32.260;2023-04-22T09:03:23;9.30;;;3.65;;
45318;SDS011;31057;48.498;32.260;2023-04-22T09:05:26;16.13;;;4.40;;
45318;SDS011;31057;48.498;32.260;2023-04-22T09:07:29;12.27;;;3.95;;
45318;SDS011;31057;48.498;32.260;2023-04-22T09:09:32;11.48;;;3.80;;
45318;SDS011;31057;48.498;32.260;2023-04-22T09:11:35;10.80;;;3.65;;
45318;SDS011;31057;48.498;32.260;2023-04-22T09:13:37;15.27;;;4.35;;
45318;SDS011;31057;48.498;32.260;2023-04-22T09:15:39;10.93;;;4.32;;
45318;SDS011;31057;48.498;32.260;2023-04-22T09:17:41;13.15;;;4.30;;
45318;SDS011;31057;48.498;32.260;2023-04-22T09:19:44;14.90;;;4.57;;
45318;SDS011;31057;48.498;32.260;2023-04-22T09:21:46;13.35;;;4.30;;
45318;SDS011;31057;48.498;32.260;2023-04-22T09:23:51;11.45;;;4.13;;
45318;SDS011;31057;48.498;32.260;2023-04-22T09:25:55;16.95;;;4.95;;
45318;SDS011;31057;48.498;32.260;2023-04-22T09:27:58;9.45;;;4.03;;
45318;SDS011;31057;48.498;32.260;2023-04-22T09:32:08;7.82;;;3.53;;
45318;SDS011;31057;48.498;32.260;2023-04-22T09:34:12;14.40;;;5.53;;
45318;SDS011;31057;48.498;32.260;2023-04-22T09:36:14;9.48;;;4.07;;
45318;SDS011;31057;48.498;32.260;2023-04-22T09:40:18;11.45;;;4.18;;
45318;SDS011;31057;48.498;32.260;2023-04-22T09:42:20;8.05;;;3.83;;
45318;SDS011;31057;48.498;32.260;2023-04-22T09:46:28;15.20;;;4.25;;
45318;SDS011;31057;48.498;32.260;2023-04-22T09:48:32;8.95;;;3.80;;
45318;SDS011;31057;48.498;32.260;2023-04-22T09:54:38;11.13;;;4.47;;
45318;SDS011;31057;48.498;32.260;2023-04-22T09:56:51;12.50;;;4.18;;
45318;SDS011;31057;48.498;32.260;2023-04-22T09:58:53;9.45;;;4.05;;
45318;SDS011;31057;48.498;32.260;2023-04-22T10:00:56;7.53;;;3.30;;
45318;SDS011;31057;48.498;32.260;2023-04-22T10:02:59;13.32;;;3.97;;
45318;SDS011;31057;48.498;32.260;2023-04-22T10:05:02;14.50;;;4.45;;
45318;SDS011;31057;48.498;32.260;2023-04-22T10:07:04;9.95;;;3.80;;
45318;SDS011;31057;48.498;32.260;2023-04-22T10:09:07;10.90;;;4.68;;
45318;SDS011;31057;48.498;32.260;2023-04-22T10:11:09;12.52;;;3.85;;
45318;SDS011;31057;48.498;32.260;2023-04-22T10:13:13;13.77;;;3.60;;
45318;SDS011;31057;48.498;32.260;2023-04-22T10:15:15;12.80;;;4.68;;
45318;SDS011;31057;48.498;32.260;2023-04-22T10:17:17;7.30;;;4.05;;
45318;SDS011;31057;48.498;32.260;2023-04-22T10:19:20;11.15;;;4.15;;
45318;SDS011;31057;48.498;32.260;2023-04-22T10:21:24;16.02;;;4.45;;
45318;SDS011;31057;48.498;32.260;2023-04-22T10:23:29;11.63;;;4.43;;
45318;SDS011;31057;48.498;32.260;2023-04-22T10:25:33;19.70;;;4.63;;
45318;SDS011;31057;48.498;32.260;2023-04-22T10:27:34;16.90;;;4.55;;
45318;SDS011;31057;48.498;32.260;2023-04-22T10:29:37;8.18;;;3.75;;
45318;SDS011;31057;48.498;32.260;2023-04-22T10:31:44;10.93;;;4.60;;
45318;SDS011;31057;48.498;32.260;2023-04-22T10:34:12;9.68;;;4.68;;
45318;SDS011;31057;48.498;32.260;2023-04-22T10:36:16;10.02;;;4.03;;
45318;SDS011;31057;48.498;32.260;2023-04-22T10:38:20;12.25;;;4.18;;
45318;SDS011;31057;48.498;32.260;2023-04-22T10:40:22;8.65;;;3.90;;
45318;SDS011;31057;48.498;32.260;2023-04-22T10:42:24;9.73;;;4.07;;
45318;SDS011;31057;48.498;32.260;2023-04-22T10:44:43;9.35;;;4.43;;
45318;SDS011;31057;48.498;32.260;2023-04-22T10:46:56;7.13;;;4.53;;
45318;SDS011;31057;48.498;32.260;2023-04-22T10:48:59;7.70;;;4.50;;
45318;SDS011;31057;48.498;32.260;2023-04-22T10:51:17;9.45;;;3.88;;
45318;SDS011;31057;48.498;32.260;2023-04-22T10:53:47;11.38;;;4.25;;
45318;SDS011;31057;48.498;32.260;2023-04-22T10:55:50;12.35;;;4.30;;
45318;SDS011;31057;48.498;32.260;2023-04-22T10:57:53;20.55;;;5.40;;
45318;SDS011;31057;48.498;32.260;2023-04-22T10:59:56;15.50;;;5.90;;
45318;SDS011;31057;48.498;32.260;2023-04-22T11:02:01;7.78;;;4.43;;
45318;SDS011;31057;48.498;32.260;2023-04-22T11:06:35;10.63;;;5.05;;
45318;SDS011;31057;48.498;32.260;2023-04-22T11:08:36;7.63;;;4.55;;
45318;SDS011;31057;48.498;32.260;2023-04-22T11:10:45;12.35;;;4.00;;
45318;SDS011;31057;48.498;32.260;2023-04-22T11:12:48;10.40;;;4.55;;
45318;SDS011;31057;48.498;32.260;2023-04-22T11:14:50;8.45;;;4.50;;
45318;SDS011;31057;48.498;32.260;2023-04-22T11:18:54;15.20;;;6.05;;
45318;SDS011;31057;48.498;32.260;2023-04-22T11:20:57;14.82;;;4.72;;
45318;SDS011;31057;48.498;32.260;2023-04-22T11:23:06;8.70;;;4.70;;
45318;SDS011;31057;48.498;32.260;2023-04-22T11:25:08;13.80;;;4.35;;
45318;SDS011;31057;48.498;32.260;2023-04-22T11:27:11;10.02;;;4.30;;
45318;SDS011;31057;48.498;32.260;2023-04-22T11:29:13;9.88;;;4.50;;
45318;SDS011;31057;48.498;32.260;2023-04-22T11:31:15;11.57;;;3.92;;
45318;SDS011;31057;48.498;32.260;2023-04-22T11:35:23;13.90;;;4.50;;
45318;SDS011;31057;48.498;32.260;2023-04-22T11:37:29;7.53;;;3.67;;
45318;SDS011;31057;48.498;32.260;2023-04-22T11:39:35;15.15;;;5.03;;
45318;SDS011;31057;48.498;32.260;2023-04-22T11:41:46;12.98;;;4.53;;
45318;SDS011;31057;48.498;32.260;2023-04-22T11:43:48;7.72;;;4.22;;
45318;SDS011;31057;48.498;32.260;2023-04-22T11:45:50;9.02;;;4.60;;
45318;SDS011;31057;48.498;32.260;2023-04-22T11:47:52;15.00;;;4.45;;
45318;SDS011;31057;48.498;32.260;2023-04-22T11:49:59;11.32;;;4.07;;
45318;SDS011;31057;48.498;32.260;2023-04-22T11:52:07;9.85;;;4.25;;
45318;SDS011;31057;48.498;32.260;2023-04-22T11:54:09;13.63;;;5.35;;
45318;SDS011;31057;48.498;32.260;2023-04-22T11:56:11;12.20;;;3.58;;
45318;SDS011;31057;48.498;32.260;2023-04-22T11:58:14;8.50;;;4.00;;
45318;SDS011;31057;48.498;32.260;2023-04-22T12:00:21;6.65;;;3.50;;
45318;SDS011;31057;48.498;32.260;2023-04-22T12:02:24;11.90;;;4.38;;
45318;SDS011;31057;48.498;32.260;2023-04-22T12:06:29;10.70;;;4.50;;
45318;SDS011;31057;48.498;32.260;2023-04-22T12:08:33;8.88;;;4.03;;
45318;SDS011;31057;48.498;32.260;2023-04-22T12:12:56;9.77;;;4.00;;
45318;SDS011;31057;48.498;32.260;2023-04-22T12:15:09;6.85;;;3.67;;
45318;SDS011;31057;48.498;32.260;2023-04-22T12:17:14;10.45;;;4.50;;
45318;SDS011;31057;48.498;32.260;2023-04-22T12:19:16;7.38;;;3.50;;
45318;SDS011;31057;48.498;32.260;2023-04-22T12:21:26;7.97;;;3.92;;
45318;SDS011;31057;48.498;32.260;2023-04-22T12:25:46;11.55;;;4.40;;
45318;SDS011;31057;48.498;32.260;2023-04-22T12:27:48;7.32;;;4.07;;
45318;SDS011;31057;48.498;32.260;2023-04-22T12:31:53;12.23;;;4.13;;
45318;SDS011;31057;48.498;32.260;2023-04-22T12:33:55;11.18;;;3.20;;
45318;SDS011;31057;48.498;32.260;2023-04-22T12:37:59;7.50;;;3.72;;
45318;SDS011;31057;48.498;32.260;2023-04-22T12:40:02;7.80;;;4.28;;
45318;SDS011;31057;48.498;32.260;2023-04-22T12:42:05;8.23;;;4.40;;
45318;SDS011;31057;48.498;32.260;2023-04-22T12:44:07;7.55;;;3.78;;
45318;SDS011;31057;48.498;32.260;2023-04-22T12:46:09;10.93;;;4.55;;
45318;SDS011;31057;48.498;32.260;2023-04-22T12:48:12;7.47;;;3.60;;
45318;SDS011;31057;48.498;32.260;2023-04-22T12:50:14;7.50;;;4.55;;
45318;SDS011;31057;48.498;32.260;2023-04-22T12:52:16;7.45;;;4.00;;
45318;SDS011;31057;48.498;32.260;2023-04-22T12:56:20;10.77;;;4.53;;
45318;SDS011;31057;48.498;32.260;2023-04-22T12:58:23;7.78;;;3.70;;
45318;SDS011;31057;48.498;32.260;2023-04-22T13:00:25;10.13;;;3.78;;
45318;SDS011;31057;48.498;32.260;2023-04-22T13:02:27;7.80;;;4.25;;
45318;SDS011;31057;48.498;32.260;2023-04-22T13:06:31;8.93;;;4.70;;
45318;SDS011;31057;48.498;32.260;2023-04-22T13:08:33;8.77;;;4.18;;
45318;SDS011;31057;48.498;32.260;2023-04-22T13:10:35;8.35;;;4.13;;
45318;SDS011;31057;48.498;32.260;2023-04-22T13:12:37;13.32;;;4.53;;
45318;SDS011;31057;48.498;32.260;2023-04-22T13:14:40;7.47;;;4.18;;
45318;SDS011;31057;48.498;32.260;2023-04-22T13:18:44;11.32;;;4.28;;
45318;SDS011;31057;48.498;32.260;2023-04-22T13:20:46;8.45;;;4.05;;
45318;SDS011;31057;48.498;32.260;2023-04-22T13:22:48;6.03;;;4.00;;
45318;SDS011;31057;48.498;32.260;2023-04-22T13:24:53;9.15;;;4.45;;
45318;SDS011;31057;48.498;32.260;2023-04-22T13:26:55;10.20;;;4.57;;
45318;SDS011;31057;48.498;32.260;2023-04-22T13:28:59;7.75;;;4.05;;
45318;SDS011;31057;48.498;32.260;2023-04-22T13:31:03;5.18;;;3.38;;
45318;SDS011;31057;48.498;32.260;2023-04-22T13:33:05;7.18;;;4.13;;
45318;SDS011;31057;48.498;32.260;2023-04-22T13:35:07;9.75;;;4.30;;
45318;SDS011;31057;48.498;32.260;2023-04-22T13:37:10;10.00;;;4.38;;
45318;SDS011;31057;48.498;32.260;2023-04-22T13:39:12;7.45;;;3.92;;
45318;SDS011;31057;48.498;32.260;2023-04-22T13:41:14;7.00;;;3.78;;
45318;SDS011;31057;48.498;32.260;2023-04-22T13:43:16;5.57;;;3.47;;
45318;SDS011;31057;48.498;32.260;2023-04-22T13:45:18;11.48;;;4.88;;
45318;SDS011;31057;48.498;32.260;2023-04-22T13:47:20;11.05;;;4.38;;